CSHVD LPFR-LPPT
Flight info
| Callsign | CSHVD |
|---|---|
| Flight time | 1h 6m |
| Altitude | 3000 |
| Route | LOULA DCT SINES DCT BRCAR TNW BUGIO DCT ENACI TR RALIS |
| Aircraft | EC35/L-VGD/C |
Departure
| Time | 2026-05-06 14:51 |
|---|---|
| Airport | Faro - Gago Coutinho International Airport (LPFR) |
Arrival
| Time | 2026-05-06 15:58 |
|---|---|
| Airport | Lisbon Humberto Delgado Airport (LPPT) |
| Time | Latitude | Longitude | Altitude | Speed | Heading |
|---|---|---|---|---|---|
| 2026-05-06 14:34 | 37.01712 | -7.96651 | 20 ft | 0 kts | 195° |
| 2026-05-06 14:46 | 37.01714 | -7.96654 | 28 ft | 1 kts | 205° |
| 2026-05-06 14:46 | 37.01728 | -7.96648 | 27 ft | 4 kts | 197° |
| 2026-05-06 14:46 | 37.01743 | -7.96641 | 35 ft | 2 kts | 175° |
| 2026-05-06 14:47 | 37.01759 | -7.96593 | 38 ft | 4 kts | 78° |
| 2026-05-06 14:47 | 37.01783 | -7.96541 | 38 ft | 8 kts | 148° |
| 2026-05-06 14:47 | 37.01728 | -7.96531 | 67 ft | 11 kts | 191° |
| 2026-05-06 14:47 | 37.01646 | -7.96547 | 57 ft | 14 kts | 162° |
| 2026-05-06 14:48 | 37.01601 | -7.96439 | 35 ft | 12 kts | 111° |
| 2026-05-06 14:48 | 37.01585 | -7.96305 | 36 ft | 17 kts | 102° |
| 2026-05-06 14:48 | 37.01570 | -7.96179 | 32 ft | 11 kts | 102° |
| 2026-05-06 14:48 | 37.01549 | -7.96116 | 34 ft | 3 kts | 182° |
| 2026-05-06 14:49 | 37.01503 | -7.96122 | 38 ft | 9 kts | 218° |
| 2026-05-06 14:49 | 37.01467 | -7.96195 | 37 ft | 11 kts | 251° |
| 2026-05-06 14:49 | 37.01440 | -7.96288 | 31 ft | 11 kts | 245° |
| 2026-05-06 14:49 | 37.01409 | -7.96363 | 24 ft | 3 kts | 276° |
| 2026-05-06 14:50 | 37.01418 | -7.96376 | 47 ft | 11 kts | 288° |
| 2026-05-06 14:50 | 37.01466 | -7.96683 | 112 ft | 56 kts | 274° |
| 2026-05-06 14:50 | 37.01535 | -7.97271 | 219 ft | 75 kts | 272° |
| 2026-05-06 14:50 | 37.01647 | -7.97943 | 377 ft | 82 kts | 274° |
| 2026-05-06 14:51 | 37.01725 | -7.98650 | 543 ft | 84 kts | 273° |
| 2026-05-06 14:51 | 37.01792 | -7.99375 | 733 ft | 83 kts | 274° |
| 2026-05-06 14:51 | 37.01977 | -8.00045 | 944 ft | 84 kts | 302° |
| 2026-05-06 14:51 | 37.02464 | -8.00471 | 1152 ft | 89 kts | 336° |
| 2026-05-06 14:52 | 37.03086 | -8.00494 | 1356 ft | 93 kts | 9° |
| 2026-05-06 14:52 | 37.03702 | -8.00362 | 1582 ft | 88 kts | 353° |
| 2026-05-06 14:52 | 37.04338 | -8.00519 | 1746 ft | 100 kts | 346° |
| 2026-05-06 14:52 | 37.05001 | -8.00686 | 2076 ft | 94 kts | 345° |
| 2026-05-06 14:53 | 37.05624 | -8.00834 | 2401 ft | 92 kts | 346° |
| 2026-05-06 14:53 | 37.06253 | -8.00963 | 2714 ft | 92 kts | 348° |
| 2026-05-06 14:53 | 37.06885 | -8.01079 | 2969 ft | 97 kts | 349° |
| 2026-05-06 14:53 | 37.07623 | -8.01213 | 2992 ft | 112 kts | 349° |
| 2026-05-06 14:54 | 37.08415 | -8.01364 | 3002 ft | 117 kts | 348° |
| 2026-05-06 14:54 | 37.09228 | -8.01529 | 2999 ft | 119 kts | 348° |
| 2026-05-06 14:54 | 37.10043 | -8.01682 | 2999 ft | 119 kts | 348° |
| 2026-05-06 14:54 | 37.10871 | -8.01828 | 3004 ft | 119 kts | 349° |
| 2026-05-06 14:55 | 37.11708 | -8.01965 | 3007 ft | 122 kts | 349° |
| 2026-05-06 14:55 | 37.12557 | -8.02102 | 3002 ft | 123 kts | 349° |
| 2026-05-06 14:55 | 37.13407 | -8.02239 | 3000 ft | 124 kts | 350° |
| 2026-05-06 14:55 | 37.14241 | -8.02512 | 3002 ft | 124 kts | 332° |
| 2026-05-06 14:56 | 37.14970 | -8.03110 | 3002 ft | 124 kts | 324° |
| 2026-05-06 14:56 | 37.15673 | -8.03724 | 2999 ft | 124 kts | 324° |
| 2026-05-06 14:56 | 37.16382 | -8.04357 | 2999 ft | 124 kts | 323° |
| 2026-05-06 14:56 | 37.17084 | -8.05005 | 3000 ft | 124 kts | 322° |
| 2026-05-06 14:57 | 37.17774 | -8.05641 | 3001 ft | 123 kts | 323° |
| 2026-05-06 14:57 | 37.18471 | -8.06279 | 3002 ft | 123 kts | 323° |
| 2026-05-06 14:57 | 37.19165 | -8.06910 | 3002 ft | 123 kts | 323° |
| 2026-05-06 14:57 | 37.19859 | -8.07540 | 2992 ft | 123 kts | 323° |
| 2026-05-06 14:58 | 37.20554 | -8.08170 | 2993 ft | 123 kts | 323° |
| 2026-05-06 14:58 | 37.21253 | -8.08804 | 2992 ft | 123 kts | 323° |
| 2026-05-06 14:58 | 37.21952 | -8.09437 | 2988 ft | 124 kts | 324° |
| 2026-05-06 14:58 | 37.22652 | -8.10071 | 2990 ft | 123 kts | 324° |
| 2026-05-06 14:59 | 37.23354 | -8.10706 | 2992 ft | 124 kts | 324° |
| 2026-05-06 14:59 | 37.24054 | -8.11340 | 2989 ft | 124 kts | 323° |
| 2026-05-06 14:59 | 37.24757 | -8.11977 | 2988 ft | 125 kts | 323° |
| 2026-05-06 14:59 | 37.25454 | -8.12609 | 2991 ft | 125 kts | 323° |
| 2026-05-06 15:00 | 37.26161 | -8.13252 | 2989 ft | 124 kts | 323° |
| 2026-05-06 15:00 | 37.26863 | -8.13889 | 2985 ft | 124 kts | 323° |
| 2026-05-06 15:00 | 37.27557 | -8.14518 | 2989 ft | 123 kts | 323° |
| 2026-05-06 15:00 | 37.28254 | -8.15150 | 2998 ft | 123 kts | 323° |
| 2026-05-06 15:01 | 37.28943 | -8.15776 | 2986 ft | 124 kts | 323° |
| 2026-05-06 15:01 | 37.29640 | -8.16409 | 2988 ft | 122 kts | 323° |
| 2026-05-06 15:01 | 37.30334 | -8.17040 | 2992 ft | 122 kts | 323° |
| 2026-05-06 15:01 | 37.31022 | -8.17665 | 2990 ft | 122 kts | 324° |
| 2026-05-06 15:02 | 37.31716 | -8.18295 | 2983 ft | 123 kts | 323° |
| 2026-05-06 15:02 | 37.32412 | -8.18927 | 2975 ft | 123 kts | 323° |
| 2026-05-06 15:02 | 37.33102 | -8.19553 | 2974 ft | 123 kts | 324° |
| 2026-05-06 15:02 | 37.33798 | -8.20185 | 2970 ft | 122 kts | 323° |
| 2026-05-06 15:03 | 37.34486 | -8.20809 | 2968 ft | 122 kts | 323° |
| 2026-05-06 15:03 | 37.35180 | -8.21439 | 2980 ft | 122 kts | 323° |
| 2026-05-06 15:03 | 37.35861 | -8.22059 | 2994 ft | 122 kts | 323° |
| 2026-05-06 15:03 | 37.36552 | -8.22689 | 2996 ft | 122 kts | 323° |
| 2026-05-06 15:04 | 37.37246 | -8.23321 | 2996 ft | 122 kts | 323° |
| 2026-05-06 15:04 | 37.37929 | -8.23943 | 2998 ft | 122 kts | 323° |
| 2026-05-06 15:04 | 37.38621 | -8.24573 | 2988 ft | 123 kts | 323° |
| 2026-05-06 15:04 | 37.39317 | -8.25207 | 2983 ft | 122 kts | 323° |
| 2026-05-06 15:05 | 37.40003 | -8.25830 | 2975 ft | 123 kts | 323° |
| 2026-05-06 15:05 | 37.40704 | -8.26468 | 2985 ft | 123 kts | 323° |
| 2026-05-06 15:05 | 37.41398 | -8.27101 | 2980 ft | 124 kts | 323° |
| 2026-05-06 15:05 | 37.42095 | -8.27738 | 2983 ft | 123 kts | 323° |
| 2026-05-06 15:06 | 37.42791 | -8.28372 | 2980 ft | 123 kts | 323° |
| 2026-05-06 15:06 | 37.43482 | -8.29001 | 2984 ft | 123 kts | 323° |
| 2026-05-06 15:06 | 37.44182 | -8.29639 | 2977 ft | 124 kts | 323° |
| 2026-05-06 15:06 | 37.44884 | -8.30272 | 2975 ft | 123 kts | 323° |
| 2026-05-06 15:07 | 37.45578 | -8.30897 | 2974 ft | 122 kts | 323° |
| 2026-05-06 15:07 | 37.46271 | -8.31524 | 2984 ft | 123 kts | 323° |
| 2026-05-06 15:07 | 37.46958 | -8.32147 | 2989 ft | 123 kts | 323° |
| 2026-05-06 15:07 | 37.47656 | -8.32783 | 2989 ft | 122 kts | 323° |
| 2026-05-06 15:08 | 37.48344 | -8.33410 | 2991 ft | 122 kts | 323° |
| 2026-05-06 15:08 | 37.49029 | -8.34036 | 2992 ft | 121 kts | 324° |
| 2026-05-06 15:08 | 37.49706 | -8.34656 | 2998 ft | 121 kts | 324° |
| 2026-05-06 15:08 | 37.50396 | -8.35288 | 2990 ft | 121 kts | 324° |
| 2026-05-06 15:09 | 37.51071 | -8.35906 | 2974 ft | 121 kts | 324° |
| 2026-05-06 15:09 | 37.51749 | -8.36524 | 2982 ft | 120 kts | 324° |
| 2026-05-06 15:09 | 37.52430 | -8.37145 | 2976 ft | 121 kts | 324° |
| 2026-05-06 15:09 | 37.53120 | -8.37774 | 2964 ft | 122 kts | 324° |
| 2026-05-06 15:10 | 37.53815 | -8.38408 | 2966 ft | 122 kts | 323° |
| 2026-05-06 15:10 | 37.54498 | -8.39033 | 2966 ft | 122 kts | 323° |
| 2026-05-06 15:10 | 37.55190 | -8.39665 | 2968 ft | 122 kts | 324° |
| 2026-05-06 15:10 | 37.55880 | -8.40296 | 2980 ft | 122 kts | 324° |
| 2026-05-06 15:11 | 37.56572 | -8.40930 | 2970 ft | 122 kts | 324° |
| 2026-05-06 15:11 | 37.57256 | -8.41557 | 2967 ft | 122 kts | 324° |
| 2026-05-06 15:11 | 37.57951 | -8.42192 | 2969 ft | 122 kts | 324° |
| 2026-05-06 15:11 | 37.58643 | -8.42827 | 2983 ft | 123 kts | 324° |
| 2026-05-06 15:12 | 37.59328 | -8.43456 | 2979 ft | 122 kts | 324° |
| 2026-05-06 15:12 | 37.60020 | -8.44093 | 2973 ft | 122 kts | 324° |
| 2026-05-06 15:12 | 37.60710 | -8.44725 | 2970 ft | 122 kts | 324° |
| 2026-05-06 15:12 | 37.61395 | -8.45354 | 2964 ft | 122 kts | 324° |
| 2026-05-06 15:13 | 37.62086 | -8.45988 | 2952 ft | 122 kts | 323° |
| 2026-05-06 15:13 | 37.62765 | -8.46609 | 2958 ft | 122 kts | 324° |
| 2026-05-06 15:13 | 37.63458 | -8.47244 | 2959 ft | 122 kts | 324° |
| 2026-05-06 15:13 | 37.64145 | -8.47874 | 2963 ft | 122 kts | 324° |
| 2026-05-06 15:14 | 37.64829 | -8.48501 | 2964 ft | 122 kts | 324° |
| 2026-05-06 15:14 | 37.65512 | -8.49129 | 2967 ft | 122 kts | 324° |
| 2026-05-06 15:14 | 37.66205 | -8.49768 | 2960 ft | 122 kts | 324° |
| 2026-05-06 15:14 | 37.66882 | -8.50392 | 2965 ft | 121 kts | 324° |
| 2026-05-06 15:15 | 37.67569 | -8.51023 | 2967 ft | 121 kts | 324° |
| 2026-05-06 15:15 | 37.68252 | -8.51651 | 2970 ft | 121 kts | 324° |
| 2026-05-06 15:15 | 37.68941 | -8.52285 | 2972 ft | 121 kts | 324° |
| 2026-05-06 15:15 | 37.69623 | -8.52914 | 2966 ft | 121 kts | 324° |
| 2026-05-06 15:16 | 37.70303 | -8.53539 | 2965 ft | 121 kts | 324° |
| 2026-05-06 15:16 | 37.70990 | -8.54171 | 2965 ft | 122 kts | 324° |
| 2026-05-06 15:16 | 37.71677 | -8.54805 | 2970 ft | 121 kts | 324° |
| 2026-05-06 15:16 | 37.72355 | -8.55429 | 2967 ft | 122 kts | 324° |
| 2026-05-06 15:17 | 37.73044 | -8.56062 | 2963 ft | 122 kts | 324° |
| 2026-05-06 15:17 | 37.73730 | -8.56694 | 2960 ft | 122 kts | 324° |
| 2026-05-06 15:17 | 37.74422 | -8.57332 | 2955 ft | 122 kts | 324° |
| 2026-05-06 15:17 | 37.75104 | -8.57960 | 2956 ft | 122 kts | 324° |
| 2026-05-06 15:18 | 37.75791 | -8.58594 | 2963 ft | 122 kts | 324° |
| 2026-05-06 15:18 | 37.76479 | -8.59229 | 2968 ft | 122 kts | 324° |
| 2026-05-06 15:18 | 37.77158 | -8.59857 | 2970 ft | 121 kts | 324° |
| 2026-05-06 15:18 | 37.77838 | -8.60484 | 2971 ft | 121 kts | 324° |
| 2026-05-06 15:19 | 37.78519 | -8.61113 | 2981 ft | 121 kts | 324° |
| 2026-05-06 15:19 | 37.79202 | -8.61743 | 2987 ft | 121 kts | 324° |
| 2026-05-06 15:19 | 37.79886 | -8.62374 | 2985 ft | 121 kts | 324° |
| 2026-05-06 15:19 | 37.80571 | -8.63005 | 2981 ft | 122 kts | 324° |
| 2026-05-06 15:20 | 37.81258 | -8.63638 | 2982 ft | 123 kts | 324° |
| 2026-05-06 15:20 | 37.81943 | -8.64272 | 2984 ft | 122 kts | 324° |
| 2026-05-06 15:20 | 37.82634 | -8.64912 | 2985 ft | 122 kts | 324° |
| 2026-05-06 15:20 | 37.83322 | -8.65550 | 2983 ft | 122 kts | 323° |
| 2026-05-06 15:21 | 37.83997 | -8.66175 | 2981 ft | 121 kts | 323° |
| 2026-05-06 15:21 | 37.84685 | -8.66811 | 2982 ft | 121 kts | 323° |
| 2026-05-06 15:21 | 37.85363 | -8.67439 | 2979 ft | 121 kts | 323° |
| 2026-05-06 15:21 | 37.86039 | -8.68064 | 2978 ft | 121 kts | 323° |
| 2026-05-06 15:22 | 37.86723 | -8.68695 | 2974 ft | 121 kts | 323° |
| 2026-05-06 15:22 | 37.87402 | -8.69323 | 2974 ft | 121 kts | 323° |
| 2026-05-06 15:22 | 37.88089 | -8.69959 | 2975 ft | 122 kts | 323° |
| 2026-05-06 15:22 | 37.88771 | -8.70589 | 2977 ft | 122 kts | 323° |
| 2026-05-06 15:23 | 37.89461 | -8.71229 | 2975 ft | 122 kts | 323° |
| 2026-05-06 15:23 | 37.90150 | -8.71868 | 2977 ft | 122 kts | 323° |
| 2026-05-06 15:23 | 37.90830 | -8.72499 | 2978 ft | 122 kts | 323° |
| 2026-05-06 15:23 | 37.91522 | -8.73141 | 2983 ft | 122 kts | 324° |
| 2026-05-06 15:24 | 37.92203 | -8.73773 | 2988 ft | 122 kts | 324° |
| 2026-05-06 15:24 | 37.92890 | -8.74411 | 2986 ft | 122 kts | 324° |
| 2026-05-06 15:24 | 37.93576 | -8.75048 | 2979 ft | 121 kts | 324° |
| 2026-05-06 15:24 | 37.94259 | -8.75680 | 2982 ft | 121 kts | 324° |
| 2026-05-06 15:25 | 37.94932 | -8.76305 | 2984 ft | 121 kts | 324° |
| 2026-05-06 15:25 | 37.95614 | -8.76938 | 2984 ft | 121 kts | 323° |
| 2026-05-06 15:25 | 37.96297 | -8.77571 | 2985 ft | 121 kts | 323° |
| 2026-05-06 15:25 | 37.96980 | -8.78205 | 2980 ft | 122 kts | 323° |
| 2026-05-06 15:26 | 37.97661 | -8.78837 | 2979 ft | 122 kts | 323° |
| 2026-05-06 15:26 | 37.98351 | -8.79478 | 2980 ft | 122 kts | 323° |
| 2026-05-06 15:26 | 37.99033 | -8.80112 | 2980 ft | 122 kts | 323° |
| 2026-05-06 15:26 | 37.99714 | -8.80746 | 2980 ft | 122 kts | 324° |
| 2026-05-06 15:27 | 38.00402 | -8.81386 | 2983 ft | 122 kts | 324° |
| 2026-05-06 15:27 | 38.01091 | -8.82027 | 2984 ft | 122 kts | 324° |
| 2026-05-06 15:27 | 38.01855 | -8.82461 | 2949 ft | 122 kts | 349° |
| 2026-05-06 15:27 | 38.02686 | -8.82516 | 2980 ft | 120 kts | 356° |
| 2026-05-06 15:28 | 38.03529 | -8.82483 | 2976 ft | 120 kts | 359° |
| 2026-05-06 15:28 | 38.04366 | -8.82447 | 2977 ft | 121 kts | 358° |
| 2026-05-06 15:28 | 38.05217 | -8.82420 | 2975 ft | 121 kts | 358° |
| 2026-05-06 15:28 | 38.06059 | -8.82401 | 2975 ft | 122 kts | 357° |
| 2026-05-06 15:29 | 38.06920 | -8.82387 | 2980 ft | 122 kts | 357° |
| 2026-05-06 15:29 | 38.07771 | -8.82378 | 2981 ft | 122 kts | 356° |
| 2026-05-06 15:29 | 38.08612 | -8.82372 | 2980 ft | 121 kts | 356° |
| 2026-05-06 15:29 | 38.09466 | -8.82367 | 2984 ft | 121 kts | 356° |
| 2026-05-06 15:30 | 38.10311 | -8.82363 | 2983 ft | 121 kts | 356° |
| 2026-05-06 15:30 | 38.11148 | -8.82361 | 2985 ft | 120 kts | 356° |
| 2026-05-06 15:30 | 38.11993 | -8.82358 | 2984 ft | 120 kts | 356° |
| 2026-05-06 15:30 | 38.12831 | -8.82356 | 2981 ft | 120 kts | 356° |
| 2026-05-06 15:31 | 38.13675 | -8.82354 | 2981 ft | 120 kts | 357° |
| 2026-05-06 15:31 | 38.14511 | -8.82352 | 2985 ft | 121 kts | 356° |
| 2026-05-06 15:31 | 38.15380 | -8.82354 | 2871 ft | 127 kts | 356° |
| 2026-05-06 15:32 | 38.17160 | -8.82371 | 2622 ft | 127 kts | 355° |
| 2026-05-06 15:32 | 38.18038 | -8.82376 | 2500 ft | 127 kts | 355° |
| 2026-05-06 15:32 | 38.18923 | -8.82380 | 2375 ft | 127 kts | 355° |
| 2026-05-06 15:32 | 38.19805 | -8.82382 | 2248 ft | 126 kts | 355° |
| 2026-05-06 15:33 | 38.20687 | -8.82383 | 2123 ft | 126 kts | 355° |
| 2026-05-06 15:33 | 38.21569 | -8.82382 | 2005 ft | 125 kts | 355° |
| 2026-05-06 15:33 | 38.22417 | -8.82377 | 1983 ft | 121 kts | 355° |
| 2026-05-06 15:33 | 38.23255 | -8.82367 | 1986 ft | 119 kts | 355° |
| 2026-05-06 15:34 | 38.24086 | -8.82357 | 1982 ft | 119 kts | 355° |
| 2026-05-06 15:34 | 38.24916 | -8.82348 | 1979 ft | 119 kts | 355° |
| 2026-05-06 15:34 | 38.25749 | -8.82342 | 1983 ft | 119 kts | 355° |
| 2026-05-06 15:34 | 38.26571 | -8.82337 | 1986 ft | 119 kts | 355° |
| 2026-05-06 15:35 | 38.27397 | -8.82334 | 1985 ft | 118 kts | 355° |
| 2026-05-06 15:35 | 38.28220 | -8.82331 | 1982 ft | 118 kts | 355° |
| 2026-05-06 15:35 | 38.29044 | -8.82329 | 1983 ft | 118 kts | 354° |
| 2026-05-06 15:35 | 38.29871 | -8.82327 | 1979 ft | 118 kts | 354° |
| 2026-05-06 15:36 | 38.30687 | -8.82325 | 1976 ft | 118 kts | 354° |
| 2026-05-06 15:36 | 38.31513 | -8.82323 | 1977 ft | 118 kts | 355° |
| 2026-05-06 15:36 | 38.32341 | -8.82325 | 1979 ft | 118 kts | 355° |
| 2026-05-06 15:36 | 38.33160 | -8.82331 | 1988 ft | 118 kts | 355° |
| 2026-05-06 15:37 | 38.33984 | -8.82333 | 2000 ft | 119 kts | 355° |
| 2026-05-06 15:37 | 38.34814 | -8.82335 | 2004 ft | 119 kts | 355° |
| 2026-05-06 15:37 | 38.35647 | -8.82337 | 1993 ft | 119 kts | 355° |
| 2026-05-06 15:37 | 38.36479 | -8.82337 | 1987 ft | 120 kts | 355° |
| 2026-05-06 15:38 | 38.37313 | -8.82337 | 1982 ft | 119 kts | 355° |
| 2026-05-06 15:38 | 38.38146 | -8.82336 | 1982 ft | 118 kts | 355° |
| 2026-05-06 15:38 | 38.38975 | -8.82334 | 1979 ft | 118 kts | 355° |
| 2026-05-06 15:38 | 38.39789 | -8.82332 | 1973 ft | 118 kts | 355° |
| 2026-05-06 15:39 | 38.40614 | -8.82330 | 1972 ft | 118 kts | 355° |
| 2026-05-06 15:39 | 38.41445 | -8.82329 | 1968 ft | 119 kts | 355° |
| 2026-05-06 15:39 | 38.42224 | -8.82599 | 1976 ft | 117 kts | 331° |
| 2026-05-06 15:39 | 38.42952 | -8.83086 | 1972 ft | 118 kts | 330° |
| 2026-05-06 15:40 | 38.43675 | -8.83583 | 1971 ft | 118 kts | 330° |
| 2026-05-06 15:40 | 38.44396 | -8.84097 | 1979 ft | 118 kts | 328° |
| 2026-05-06 15:40 | 38.45109 | -8.84615 | 1991 ft | 117 kts | 329° |
| 2026-05-06 15:40 | 38.45819 | -8.85126 | 2001 ft | 117 kts | 329° |
| 2026-05-06 15:41 | 38.46524 | -8.85632 | 2004 ft | 117 kts | 329° |
| 2026-05-06 15:41 | 38.47245 | -8.86149 | 1992 ft | 118 kts | 329° |
| 2026-05-06 15:41 | 38.47958 | -8.86659 | 1987 ft | 118 kts | 329° |
| 2026-05-06 15:41 | 38.48676 | -8.87172 | 1978 ft | 117 kts | 329° |
| 2026-05-06 15:42 | 38.49390 | -8.87680 | 1984 ft | 117 kts | 329° |
| 2026-05-06 15:42 | 38.50096 | -8.88181 | 1992 ft | 117 kts | 329° |
| 2026-05-06 15:42 | 38.50812 | -8.88696 | 1992 ft | 118 kts | 327° |
| 2026-05-06 15:42 | 38.51368 | -8.89461 | 2010 ft | 120 kts | 301° |
| 2026-05-06 15:43 | 38.51521 | -8.90528 | 2027 ft | 125 kts | 275° |
| 2026-05-06 15:43 | 38.51536 | -8.91648 | 1988 ft | 128 kts | 274° |
| 2026-05-06 15:43 | 38.51530 | -8.92781 | 1982 ft | 126 kts | 272° |
| 2026-05-06 15:43 | 38.51512 | -8.93882 | 2000 ft | 126 kts | 273° |
| 2026-05-06 15:44 | 38.51498 | -8.95009 | 2011 ft | 125 kts | 273° |
| 2026-05-06 15:44 | 38.51485 | -8.96109 | 2019 ft | 126 kts | 273° |
| 2026-05-06 15:44 | 38.51474 | -8.97231 | 2011 ft | 126 kts | 274° |
| 2026-05-06 15:44 | 38.51464 | -8.98361 | 2010 ft | 126 kts | 274° |
| 2026-05-06 15:45 | 38.51455 | -8.99472 | 1997 ft | 126 kts | 274° |
| 2026-05-06 15:45 | 38.51446 | -9.00594 | 2021 ft | 125 kts | 274° |
| 2026-05-06 15:45 | 38.51437 | -9.01717 | 2019 ft | 127 kts | 274° |
| 2026-05-06 15:45 | 38.51427 | -9.02830 | 2023 ft | 126 kts | 274° |
| 2026-05-06 15:46 | 38.51418 | -9.03956 | 2019 ft | 126 kts | 273° |
| 2026-05-06 15:46 | 38.51408 | -9.05078 | 2015 ft | 126 kts | 273° |
| 2026-05-06 15:46 | 38.51400 | -9.06186 | 2012 ft | 125 kts | 274° |
| 2026-05-06 15:46 | 38.51391 | -9.07302 | 2015 ft | 125 kts | 274° |
| 2026-05-06 15:47 | 38.51382 | -9.08416 | 2013 ft | 126 kts | 274° |
| 2026-05-06 15:47 | 38.51373 | -9.09534 | 2016 ft | 126 kts | 274° |
| 2026-05-06 15:47 | 38.51363 | -9.10654 | 2018 ft | 126 kts | 274° |
| 2026-05-06 15:47 | 38.51354 | -9.11763 | 2017 ft | 126 kts | 274° |
| 2026-05-06 15:48 | 38.51344 | -9.12892 | 2017 ft | 126 kts | 274° |
| 2026-05-06 15:48 | 38.51334 | -9.14004 | 2017 ft | 126 kts | 274° |
| 2026-05-06 15:48 | 38.51325 | -9.15133 | 2017 ft | 127 kts | 274° |
| 2026-05-06 15:48 | 38.51327 | -9.16249 | 2014 ft | 125 kts | 278° |
| 2026-05-06 15:49 | 38.51646 | -9.17241 | 1999 ft | 119 kts | 310° |
| 2026-05-06 15:49 | 38.52299 | -9.17872 | 2015 ft | 116 kts | 330° |
| 2026-05-06 15:49 | 38.53039 | -9.18295 | 2025 ft | 117 kts | 336° |
| 2026-05-06 15:49 | 38.53806 | -9.18685 | 2026 ft | 117 kts | 336° |
| 2026-05-06 15:50 | 38.54560 | -9.19077 | 2024 ft | 117 kts | 336° |
| 2026-05-06 15:50 | 38.55311 | -9.19474 | 2023 ft | 117 kts | 335° |
| 2026-05-06 15:50 | 38.56063 | -9.19876 | 2022 ft | 116 kts | 335° |
| 2026-05-06 15:50 | 38.56804 | -9.20275 | 2023 ft | 116 kts | 336° |
| 2026-05-06 15:51 | 38.57548 | -9.20677 | 2020 ft | 116 kts | 335° |
| 2026-05-06 15:51 | 38.58297 | -9.21083 | 2021 ft | 116 kts | 336° |
| 2026-05-06 15:51 | 38.59040 | -9.21486 | 2021 ft | 116 kts | 336° |
| 2026-05-06 15:51 | 38.59790 | -9.21893 | 2024 ft | 117 kts | 335° |
| 2026-05-06 15:52 | 38.60538 | -9.22299 | 2026 ft | 117 kts | 336° |
| 2026-05-06 15:52 | 38.61314 | -9.22657 | 2012 ft | 118 kts | 345° |
| 2026-05-06 15:52 | 38.62117 | -9.22819 | 2026 ft | 117 kts | 348° |
| 2026-05-06 15:52 | 38.62938 | -9.22936 | 2015 ft | 119 kts | 356° |
| 2026-05-06 15:53 | 38.63753 | -9.22723 | 1996 ft | 124 kts | 20° |
| 2026-05-06 15:53 | 38.64408 | -9.21975 | 2030 ft | 125 kts | 37° |
| 2026-05-06 15:53 | 38.65013 | -9.21168 | 2032 ft | 124 kts | 32° |
| 2026-05-06 15:53 | 38.65679 | -9.20474 | 2024 ft | 124 kts | 29° |
| 2026-05-06 15:54 | 38.66405 | -9.19888 | 2024 ft | 121 kts | 21° |
| 2026-05-06 15:54 | 38.67170 | -9.19447 | 2024 ft | 120 kts | 15° |
| 2026-05-06 15:54 | 38.67947 | -9.19053 | 2037 ft | 122 kts | 16° |
| 2026-05-06 15:54 | 38.68741 | -9.18617 | 1994 ft | 122 kts | 14° |
| 2026-05-06 15:55 | 38.69512 | -9.18243 | 1849 ft | 115 kts | 12° |
| 2026-05-06 15:55 | 38.70238 | -9.17851 | 1736 ft | 114 kts | 20° |
| 2026-05-06 15:55 | 38.70955 | -9.17412 | 1588 ft | 114 kts | 19° |
| 2026-05-06 15:55 | 38.71663 | -9.17045 | 1456 ft | 107 kts | 17° |
| 2026-05-06 15:56 | 38.72355 | -9.16684 | 1302 ft | 105 kts | 16° |
| 2026-05-06 15:56 | 38.72990 | -9.16342 | 1177 ft | 96 kts | 18° |
| 2026-05-06 15:56 | 38.73594 | -9.16016 | 1054 ft | 91 kts | 19° |
| 2026-05-06 15:56 | 38.74158 | -9.15694 | 931 ft | 85 kts | 19° |
| 2026-05-06 15:57 | 38.74644 | -9.15421 | 848 ft | 68 kts | 18° |
| 2026-05-06 15:57 | 38.75050 | -9.15194 | 784 ft | 61 kts | 19° |
| 2026-05-06 15:57 | 38.75434 | -9.14998 | 701 ft | 60 kts | 18° |
| 2026-05-06 15:57 | 38.75812 | -9.14819 | 610 ft | 55 kts | 18° |
| 2026-05-06 15:58 | 38.76136 | -9.14645 | 529 ft | 44 kts | 22° |
| 2026-05-06 15:58 | 38.76384 | -9.14527 | 483 ft | 36 kts | 24° |
| 2026-05-06 15:58 | 38.76635 | -9.14391 | 431 ft | 42 kts | 25° |
| 2026-05-06 15:58 | 38.76902 | -9.14249 | 401 ft | 38 kts | 24° |
| 2026-05-06 15:59 | 38.77129 | -9.14131 | 410 ft | 35 kts | 21° |
| 2026-05-06 15:59 | 38.77346 | -9.14014 | 405 ft | 34 kts | 22° |
| 2026-05-06 15:59 | 38.77570 | -9.13892 | 410 ft | 34 kts | 25° |
| 2026-05-06 15:59 | 38.77786 | -9.13779 | 410 ft | 30 kts | 27° |
| 2026-05-06 16:00 | 38.77946 | -9.13694 | 403 ft | 23 kts | 30° |
| 2026-05-06 16:00 | 38.78052 | -9.13619 | 391 ft | 13 kts | 103° |
| 2026-05-06 16:00 | 38.78000 | -9.13561 | 398 ft | 17 kts | 173° |
| 2026-05-06 16:00 | 38.77881 | -9.13530 | 395 ft | 18 kts | 172° |
| 2026-05-06 16:01 | 38.77743 | -9.13491 | 395 ft | 18 kts | 174° |
| 2026-05-06 16:01 | 38.77645 | -9.13451 | 388 ft | 15 kts | 118° |
| 2026-05-06 16:01 | 38.77686 | -9.13370 | 393 ft | 12 kts | 20° |
| 2026-05-06 16:01 | 38.77739 | -9.13268 | 387 ft | 13 kts | 79° |
| 2026-05-06 16:02 | 38.77757 | -9.13139 | 389 ft | 17 kts | 76° |
| 2026-05-06 16:02 | 38.77782 | -9.13038 | 400 ft | 12 kts | 28° |
| 2026-05-06 16:02 | 38.77875 | -9.13036 | 405 ft | 12 kts | 355° |
| 2026-05-06 16:02 | 38.77963 | -9.13062 | 392 ft | 9 kts | 350° |
| 2026-05-06 16:03 | 38.78050 | -9.13078 | 400 ft | 14 kts | 22° |
| 2026-05-06 16:03 | 38.78095 | -9.13034 | 391 ft | 5 kts | 34° |
| 2026-05-06 16:03 | 38.78126 | -9.12992 | 385 ft | 7 kts | 139° |
| 2026-05-06 16:03 | 38.78104 | -9.12964 | 386 ft | 0 kts | 272° |
| 2026-05-06 16:04 | 38.78111 | -9.12968 | 376 ft | 0 kts | 303° |